createdAt,value
2017-05-10T00:01:02.882Z,6.60
2017-05-10T00:03:30.269Z,6.70
2017-05-10T00:05:57.586Z,6.70
2017-05-10T00:08:24.753Z,6.60
2017-05-10T00:10:52.740Z,6.70
2017-05-10T00:13:19.909Z,6.60
2017-05-10T00:15:47.889Z,6.60
2017-05-10T00:18:15.073Z,6.60
2017-05-10T00:20:42.246Z,6.60
2017-05-10T00:23:09.417Z,6.60
2017-05-10T00:25:36.697Z,6.60
2017-05-10T00:28:03.855Z,6.50
2017-05-10T00:30:31.841Z,6.40
2017-05-10T00:32:59.163Z,6.40
2017-05-10T00:35:26.312Z,6.40
2017-05-10T00:37:53.462Z,6.40
2017-05-10T00:40:20.625Z,6.40
2017-05-10T00:42:47.774Z,6.40
2017-05-10T00:45:14.924Z,6.40
2017-05-10T00:47:42.847Z,6.30
2017-05-10T00:50:10.045Z,6.30
2017-05-10T00:52:37.217Z,6.30
2017-05-10T00:55:04.429Z,6.20
2017-05-10T00:57:32.358Z,6.10
2017-05-10T00:59:59.584Z,6.10
2017-05-10T01:02:26.770Z,6.10
2017-05-10T01:04:53.950Z,6.10
2017-05-10T01:07:21.929Z,6.10
2017-05-10T01:09:49.864Z,6.10
2017-05-10T01:12:17.185Z,6.00
2017-05-10T01:14:45.078Z,6.00
2017-05-10T01:17:12.517Z,6.00
2017-05-10T01:19:39.756Z,6.00
2017-05-10T01:22:07.641Z,6.00
2017-05-10T01:24:34.811Z,6.00
2017-05-10T01:27:01.970Z,6.00
2017-05-10T01:29:29.172Z,5.90
2017-05-10T01:31:57.006Z,5.70
2017-05-10T01:34:25.364Z,5.80
2017-05-10T01:36:52.534Z,5.80
2017-05-10T01:39:19.716Z,5.70
2017-05-10T01:41:46.896Z,5.70
2017-05-10T01:44:14.171Z,5.70
2017-05-10T01:46:41.691Z,5.70
2017-05-10T01:49:09.133Z,5.70
2017-05-10T01:51:36.582Z,5.70
2017-05-10T01:54:04.013Z,5.70
2017-05-10T01:56:31.829Z,5.60
2017-05-10T01:58:59.214Z,5.60
2017-05-10T02:01:27.348Z,5.50
2017-05-10T02:03:54.820Z,5.50
2017-05-10T02:06:22.225Z,5.50
2017-05-10T02:08:49.686Z,5.50
2017-05-10T02:11:17.117Z,5.50
2017-05-10T02:13:45.256Z,5.40
2017-05-10T02:16:13.271Z,5.40
2017-05-10T02:18:40.474Z,5.40
2017-05-10T02:21:07.693Z,5.40
2017-05-10T02:23:34.867Z,5.40
2017-05-10T02:26:02.196Z,5.30
2017-05-10T02:28:30.431Z,5.30
2017-05-10T02:30:57.882Z,5.30
2017-05-10T02:33:25.309Z,5.30
2017-05-10T02:38:26.426Z,5.20
2017-05-10T02:40:53.643Z,5.20
2017-05-10T02:43:20.837Z,5.20
2017-05-10T02:45:48.062Z,5.10
2017-05-10T02:48:15.275Z,5.10
2017-05-10T02:50:42.481Z,5.20
2017-05-10T02:53:09.749Z,5.10
2017-05-10T02:55:37.670Z,5.10
2017-05-10T02:58:04.873Z,5.00
2017-05-10T03:00:32.789Z,5.00
2017-05-10T03:02:59.997Z,5.00
2017-05-10T03:05:27.167Z,5.00
2017-05-10T03:07:55.572Z,5.00
2017-05-10T03:10:22.770Z,5.00
2017-05-10T03:12:49.963Z,5.00
2017-05-10T03:15:17.303Z,5.00
2017-05-10T03:17:44.670Z,5.00
2017-05-10T03:20:11.856Z,4.90
2017-05-10T03:22:39.309Z,4.90
2017-05-10T03:25:06.757Z,4.90
2017-05-10T03:27:34.209Z,4.90
2017-05-10T03:30:01.652Z,4.90
2017-05-10T03:32:29.487Z,4.80
2017-05-10T03:34:56.871Z,4.80
2017-05-10T03:37:24.297Z,4.80
2017-05-10T03:39:51.725Z,4.80
2017-05-10T03:42:20.336Z,4.70
2017-05-10T03:44:47.860Z,4.70
2017-05-10T03:47:15.998Z,4.70
2017-05-10T03:49:43.452Z,4.70
2017-05-10T03:52:10.774Z,4.60
2017-05-10T03:54:38.825Z,4.70
2017-05-10T03:57:06.265Z,4.70
2017-05-10T03:59:33.670Z,4.70
2017-05-10T04:02:01.593Z,4.60
2017-05-10T04:04:29.002Z,4.60
2017-05-10T04:06:56.433Z,4.60
2017-05-10T04:09:23.856Z,4.60
2017-05-10T04:11:51.187Z,4.60
2017-05-10T04:14:18.593Z,4.60
2017-05-10T04:16:45.993Z,4.60
2017-05-10T04:19:13.401Z,4.60
2017-05-10T04:21:40.840Z,4.60
2017-05-10T04:24:08.364Z,4.60
2017-05-10T04:26:35.787Z,4.60
2017-05-10T04:29:03.254Z,4.60
2017-05-10T04:31:30.680Z,4.60
2017-05-10T04:33:58.098Z,4.60
2017-05-10T04:36:26.613Z,4.70
2017-05-10T04:38:54.038Z,4.70
2017-05-10T04:41:21.493Z,4.60
2017-05-10T04:43:48.795Z,4.70
2017-05-10T04:46:16.144Z,4.80
2017-05-10T04:48:43.628Z,4.90
2017-05-10T04:51:11.067Z,4.80
2017-05-10T04:53:38.461Z,4.90
2017-05-10T04:56:05.827Z,4.90
2017-05-10T04:58:33.281Z,5.00
2017-05-10T05:01:00.736Z,5.00
2017-05-10T05:03:28.160Z,5.00
2017-05-10T05:05:55.573Z,5.00
2017-05-10T05:08:24.440Z,5.10
2017-05-10T05:10:51.846Z,5.10
2017-05-10T05:13:20.304Z,5.20
2017-05-10T05:15:47.923Z,5.20
2017-05-10T05:18:15.404Z,5.30
2017-05-10T05:20:42.801Z,5.30
2017-05-10T05:23:10.222Z,5.40
2017-05-10T05:25:38.421Z,5.40
2017-05-10T05:28:06.609Z,5.50
2017-05-10T05:30:33.796Z,5.60
2017-05-10T05:33:01.083Z,5.80
2017-05-10T05:35:28.370Z,6.00
2017-05-10T05:37:55.793Z,6.10
2017-05-10T05:40:23.117Z,6.10
2017-05-10T05:42:50.456Z,6.30
2017-05-10T05:45:18.199Z,6.40
2017-05-10T05:47:45.585Z,6.50
2017-05-10T05:50:12.993Z,6.60
2017-05-10T05:52:41.146Z,6.70
2017-05-10T05:55:08.529Z,6.80
2017-05-10T05:57:35.930Z,7.00
2017-05-10T06:00:03.480Z,7.20
2017-05-10T06:02:30.876Z,7.20
2017-05-10T06:04:58.274Z,7.40
2017-05-10T06:07:26.505Z,7.50
2017-05-10T06:09:54.855Z,7.50
2017-05-10T06:12:22.413Z,7.70
2017-05-10T06:14:50.424Z,7.70
2017-05-10T06:17:18.048Z,7.70
2017-05-10T06:19:45.243Z,7.80
2017-05-10T06:22:12.638Z,8.00
2017-05-10T06:24:40.135Z,8.00
2017-05-10T06:27:07.548Z,8.00
2017-05-10T06:29:35.148Z,8.20
2017-05-10T06:32:02.572Z,8.40
2017-05-10T06:34:30.007Z,8.50
2017-05-10T06:36:57.439Z,8.70
2017-05-10T06:39:25.624Z,8.70
2017-05-10T06:41:53.074Z,8.70
2017-05-10T06:44:20.664Z,9.00
2017-05-10T06:46:47.992Z,9.10
2017-05-10T06:49:15.428Z,9.00
2017-05-10T06:51:42.824Z,9.20
2017-05-10T06:54:10.221Z,9.30
2017-05-10T06:56:37.617Z,9.50
2017-05-10T06:59:05.775Z,9.60
2017-05-10T07:01:33.149Z,9.60
2017-05-10T07:04:01.273Z,9.80
2017-05-10T07:06:28.787Z,10.00
2017-05-10T07:08:56.204Z,10.00
2017-05-10T07:11:23.612Z,10.20
2017-05-10T07:13:51.175Z,10.40
2017-05-10T07:16:18.668Z,10.50
2017-05-10T07:18:46.065Z,10.70
2017-05-10T07:21:13.562Z,10.80
2017-05-10T07:23:40.983Z,10.80
2017-05-10T07:26:08.433Z,10.90
2017-05-10T07:28:35.847Z,11.10
2017-05-10T07:31:03.245Z,11.10
2017-05-10T07:33:30.673Z,11.20
2017-05-10T07:35:58.078Z,11.30
2017-05-10T07:38:25.400Z,11.30
2017-05-10T07:40:52.928Z,11.40
2017-05-10T07:43:20.381Z,11.50
2017-05-10T07:45:47.816Z,11.60
2017-05-10T07:48:15.220Z,11.70
2017-05-10T07:50:42.654Z,11.80
2017-05-10T07:53:10.820Z,11.80
2017-05-10T07:55:38.248Z,11.90
2017-05-10T07:58:05.667Z,12.00
2017-05-10T08:00:33.070Z,12.20
2017-05-10T08:03:00.374Z,12.50
2017-05-10T08:05:27.816Z,13.10
2017-05-10T08:07:55.258Z,13.60
2017-05-10T08:10:22.662Z,15.00
2017-05-10T08:12:50.123Z,17.20
2017-05-10T08:15:17.612Z,19.10
2017-05-10T08:17:45.225Z,20.50
2017-05-10T08:20:12.664Z,21.40
2017-05-10T08:22:40.143Z,21.70
2017-05-10T08:25:07.477Z,22.90
2017-05-10T08:27:35.619Z,23.60
2017-05-10T08:30:03.064Z,23.20
2017-05-10T08:32:30.455Z,23.40
2017-05-10T08:34:57.798Z,23.70
2017-05-10T08:37:25.925Z,22.80
2017-05-10T08:39:53.356Z,22.80
2017-05-10T08:42:21.505Z,23.10
2017-05-10T08:44:48.917Z,22.10
2017-05-10T08:47:16.325Z,21.10
2017-05-10T08:49:44.386Z,19.30
2017-05-10T08:52:11.829Z,18.50
2017-05-10T08:54:39.268Z,17.60
2017-05-10T08:57:06.677Z,17.10
2017-05-10T08:59:34.811Z,16.80
2017-05-10T09:02:02.205Z,16.10
2017-05-10T09:04:29.509Z,15.40
2017-05-10T09:06:56.849Z,15.20
2017-05-10T09:09:24.259Z,15.00
2017-05-10T09:11:51.658Z,14.90
2017-05-10T09:14:19.060Z,15.10
2017-05-10T09:16:46.467Z,15.20
2017-05-10T09:19:13.866Z,15.20
2017-05-10T09:21:42.020Z,15.10
2017-05-10T09:24:09.481Z,15.00
2017-05-10T09:26:37.584Z,15.00
2017-05-10T09:29:05.014Z,15.00
2017-05-10T09:31:32.492Z,15.10
2017-05-10T09:33:59.908Z,15.20
2017-05-10T09:36:27.339Z,15.20
2017-05-10T09:38:54.782Z,15.40
2017-05-10T09:41:22.188Z,15.50
2017-05-10T09:43:49.480Z,15.50
2017-05-10T09:46:16.892Z,15.60
2017-05-10T09:48:44.317Z,15.40
2017-05-10T09:51:11.646Z,15.20
2017-05-10T09:53:39.212Z,15.20
2017-05-10T09:56:06.621Z,15.40
2017-05-10T09:58:34.004Z,15.40
2017-05-10T10:01:01.536Z,15.60
2017-05-10T10:03:28.949Z,15.60
2017-05-10T10:05:56.320Z,15.60
2017-05-10T10:08:23.777Z,15.70
2017-05-10T10:10:51.369Z,15.80
2017-05-10T10:13:18.708Z,15.80
2017-05-10T10:15:46.159Z,15.70
2017-05-10T10:18:14.325Z,15.70
2017-05-10T10:20:41.754Z,15.50
2017-05-10T10:23:09.065Z,15.50
2017-05-10T10:25:37.225Z,15.50
2017-05-10T10:28:04.640Z,15.70
2017-05-10T10:30:32.039Z,15.90
2017-05-10T10:33:00.338Z,16.10
2017-05-10T10:35:27.773Z,16.20
2017-05-10T10:37:55.817Z,16.20
2017-05-10T10:40:23.172Z,16.20
2017-05-10T10:42:50.542Z,16.10
2017-05-10T10:45:18.001Z,16.10
2017-05-10T10:47:45.436Z,16.10
2017-05-10T10:50:13.640Z,16.20
2017-05-10T10:52:41.770Z,16.20
2017-05-10T10:55:09.228Z,16.40
2017-05-10T10:57:36.650Z,16.40
2017-05-10T11:00:04.064Z,16.60
2017-05-10T11:02:32.253Z,16.60
2017-05-10T11:05:00.408Z,16.60
2017-05-10T11:07:27.730Z,16.70
2017-05-10T11:09:55.129Z,16.70
2017-05-10T11:12:23.300Z,16.80
2017-05-10T11:14:50.744Z,16.90
2017-05-10T11:17:18.101Z,16.90
2017-05-10T11:19:45.372Z,16.80
2017-05-10T11:22:12.770Z,16.60
2017-05-10T11:24:40.225Z,16.60
2017-05-10T11:27:07.677Z,16.80
2017-05-10T11:29:35.097Z,16.80
2017-05-10T11:32:02.535Z,16.90
2017-05-10T11:34:29.954Z,16.90
2017-05-10T11:36:58.141Z,16.90
2017-05-10T11:39:25.481Z,16.90
2017-05-10T11:41:52.880Z,17.00
2017-05-10T11:44:21.016Z,17.00
2017-05-10T11:46:48.434Z,17.00
2017-05-10T11:49:15.861Z,17.00
2017-05-10T11:51:43.980Z,16.90
2017-05-10T11:54:12.637Z,17.00
2017-05-10T11:56:40.083Z,17.00
2017-05-10T11:59:07.385Z,17.00
2017-05-10T12:01:34.730Z,17.10
2017-05-10T12:04:02.175Z,17.20
2017-05-10T12:06:29.794Z,17.20
2017-05-10T12:08:57.236Z,17.30
2017-05-10T12:11:24.476Z,17.40
2017-05-10T12:13:51.749Z,17.40
2017-05-10T12:16:18.961Z,17.50
2017-05-10T12:18:46.333Z,17.60
2017-05-10T12:21:14.579Z,17.60
2017-05-10T12:23:41.815Z,17.60
2017-05-10T12:26:08.980Z,17.80
2017-05-10T12:28:36.168Z,17.90
2017-05-10T12:31:03.450Z,17.90
2017-05-10T12:33:30.853Z,17.80
2017-05-10T12:35:58.293Z,17.90
2017-05-10T12:38:25.801Z,18.00
2017-05-10T12:40:53.147Z,18.00
2017-05-10T12:43:20.672Z,18.00
2017-05-10T12:45:48.154Z,17.90
2017-05-10T12:48:15.508Z,17.80
2017-05-10T12:50:45.944Z,17.90
2017-05-10T12:53:13.243Z,17.90
2017-05-10T12:55:40.482Z,17.90
2017-05-10T12:58:07.727Z,17.60
2017-05-10T13:00:34.914Z,17.50
2017-05-10T13:03:07.675Z,17.40
2017-05-10T13:05:34.867Z,17.60
2017-05-10T13:08:02.057Z,17.70
2017-05-10T13:10:29.225Z,17.70
2017-05-10T13:12:56.394Z,17.80
2017-05-10T13:15:26.666Z,17.90
2017-05-10T13:17:56.445Z,18.00
2017-05-10T13:20:23.665Z,18.10
2017-05-10T13:22:50.960Z,18.20
2017-05-10T13:25:18.145Z,18.30
2017-05-10T13:27:46.256Z,18.30
2017-05-10T13:30:13.436Z,18.30
2017-05-10T13:32:40.612Z,18.30
2017-05-10T13:35:07.790Z,18.30
2017-05-10T13:37:35.131Z,18.20
2017-05-10T13:40:02.320Z,18.20
2017-05-10T13:42:29.509Z,18.30
2017-05-10T13:44:56.689Z,18.40
2017-05-10T13:47:23.869Z,18.50
2017-05-10T13:49:51.120Z,18.60
2017-05-10T13:52:18.535Z,19.00
2017-05-10T13:54:46.034Z,18.60
2017-05-10T13:57:13.367Z,18.60
2017-05-10T13:59:40.720Z,18.50
2017-05-10T14:02:08.155Z,18.60
2017-05-10T14:04:35.613Z,18.50
2017-05-10T14:07:03.040Z,18.60
2017-05-10T14:09:31.217Z,18.60
2017-05-10T14:11:58.632Z,18.50
2017-05-10T14:14:26.254Z,18.50
2017-05-10T14:16:53.677Z,18.50
2017-05-10T14:19:21.168Z,18.60
2017-05-10T14:21:48.557Z,18.60
2017-05-10T14:24:16.077Z,18.40
2017-05-10T14:26:43.517Z,18.30
2017-05-10T14:29:11.259Z,18.40
2017-05-10T14:31:38.716Z,18.50
2017-05-10T14:34:06.901Z,18.50
2017-05-10T14:36:35.071Z,18.50
2017-05-10T14:39:03.359Z,18.50
2017-05-10T14:41:30.776Z,18.60
2017-05-10T14:43:58.209Z,18.60
2017-05-10T14:46:25.519Z,18.60
2017-05-10T14:48:52.941Z,18.70
2017-05-10T14:51:20.372Z,18.80
2017-05-10T14:53:47.829Z,18.90
2017-05-10T14:56:15.353Z,19.00
2017-05-10T14:58:42.886Z,18.80
2017-05-10T15:01:10.416Z,18.90
2017-05-10T15:03:38.004Z,18.90
2017-05-10T15:06:05.463Z,19.00
2017-05-10T15:08:33.000Z,18.80
2017-05-10T15:11:00.427Z,18.70
2017-05-10T15:13:28.601Z,18.60
2017-05-10T15:15:56.862Z,18.50
2017-05-10T15:18:24.405Z,18.60
2017-05-10T15:20:52.155Z,18.60
2017-05-10T15:23:20.669Z,18.60
2017-05-10T15:25:47.977Z,18.40
2017-05-10T15:28:15.303Z,18.30
2017-05-10T15:30:42.504Z,18.40
2017-05-10T15:33:09.905Z,18.30
2017-05-10T15:35:39.612Z,18.40
2017-05-10T15:38:06.841Z,18.40
2017-05-10T15:40:34.075Z,18.50
2017-05-10T15:43:02.058Z,18.40
2017-05-10T15:45:29.319Z,18.50
2017-05-10T15:47:56.557Z,18.70
2017-05-10T15:50:23.931Z,18.80
2017-05-10T15:52:51.249Z,18.80
2017-05-10T15:55:18.703Z,18.80
2017-05-10T15:57:46.891Z,18.70
2017-05-10T16:00:14.102Z,18.60
2017-05-10T16:02:41.340Z,18.70
2017-05-10T16:05:08.572Z,18.60
2017-05-10T16:07:35.993Z,18.50
2017-05-10T16:10:03.192Z,18.50
2017-05-10T16:12:30.623Z,18.40
2017-05-10T16:14:57.914Z,18.40
2017-05-10T16:17:25.378Z,18.40
2017-05-10T16:19:52.854Z,18.20
2017-05-10T16:22:20.257Z,18.00
2017-05-10T16:24:47.804Z,18.00
2017-05-10T16:27:15.244Z,18.00
2017-05-10T16:29:42.700Z,18.00
2017-05-10T16:32:10.145Z,17.90
2017-05-10T16:34:37.515Z,18.00
2017-05-10T16:37:04.964Z,18.10
2017-05-10T16:39:32.310Z,18.00
2017-05-10T16:41:59.728Z,18.10
2017-05-10T16:44:27.180Z,18.10
2017-05-10T16:46:54.679Z,18.10
2017-05-10T16:49:22.137Z,18.10
2017-05-10T16:51:49.478Z,18.10
2017-05-10T16:54:16.844Z,18.10
2017-05-10T16:56:44.178Z,17.90
2017-05-10T16:59:11.668Z,17.90
2017-05-10T17:01:39.178Z,17.90
2017-05-10T17:04:07.404Z,17.90
2017-05-10T17:06:34.842Z,18.10
2017-05-10T17:09:11.041Z,18.20
2017-05-10T17:11:38.293Z,18.20
2017-05-10T17:14:06.320Z,18.20
2017-05-10T17:16:33.713Z,18.00
2017-05-10T17:19:06.379Z,18.00
2017-05-10T17:21:33.889Z,17.90
2017-05-10T17:24:02.134Z,17.70
2017-05-10T17:26:30.450Z,17.60
2017-05-10T17:28:57.985Z,17.70
2017-05-10T17:31:26.257Z,17.50
2017-05-10T17:33:55.125Z,17.50
2017-05-10T17:36:22.736Z,17.60
2017-05-10T17:38:50.277Z,17.50
2017-05-10T17:41:17.795Z,17.50
2017-05-10T17:43:45.306Z,17.40
2017-05-10T17:46:12.835Z,17.40
2017-05-10T17:48:40.365Z,17.20
2017-05-10T17:51:07.893Z,17.10
2017-05-10T17:53:35.485Z,17.10
2017-05-10T17:56:03.001Z,17.00
2017-05-10T17:58:30.683Z,17.00
2017-05-10T18:00:58.201Z,16.90
2017-05-10T18:03:25.780Z,16.90
2017-05-10T18:05:53.351Z,16.80
2017-05-10T18:08:20.908Z,16.70
2017-05-10T18:10:48.432Z,16.80
2017-05-10T18:13:15.949Z,16.80
2017-05-10T18:15:43.485Z,16.70
2017-05-10T18:18:11.024Z,16.40
2017-05-10T18:20:38.587Z,16.30
2017-05-10T18:23:06.097Z,16.40
2017-05-10T18:25:34.372Z,16.20
2017-05-10T18:28:03.242Z,16.20
2017-05-10T18:30:30.729Z,16.10
2017-05-10T18:32:58.249Z,16.00
2017-05-10T18:35:25.847Z,16.00
2017-05-10T18:37:53.408Z,15.90
2017-05-10T18:40:21.261Z,15.80
2017-05-10T18:42:48.931Z,15.70
2017-05-10T18:45:16.453Z,15.70
2017-05-10T18:47:43.984Z,15.70
2017-05-10T18:50:11.553Z,15.60
2017-05-10T18:52:39.155Z,15.60
2017-05-10T18:55:06.714Z,15.70
2017-05-10T18:57:34.993Z,15.60
2017-05-10T19:00:02.551Z,15.60
2017-05-10T19:02:30.189Z,15.60
2017-05-10T19:04:58.457Z,15.60
2017-05-10T19:07:26.171Z,15.50
2017-05-10T19:09:53.703Z,15.40
2017-05-10T19:12:21.954Z,15.30
2017-05-10T19:14:49.213Z,15.20
2017-05-10T19:17:16.430Z,15.10
2017-05-10T19:19:44.387Z,15.20
2017-05-10T19:22:12.373Z,15.20
2017-05-10T19:24:40.317Z,15.20
2017-05-10T19:27:08.326Z,15.00
2017-05-10T19:29:35.518Z,15.00
2017-05-10T19:32:02.712Z,14.90
2017-05-10T19:34:29.985Z,14.90
2017-05-10T19:36:57.302Z,14.80
2017-05-10T19:39:24.903Z,14.70
2017-05-10T19:41:52.226Z,14.60
2017-05-10T19:44:19.430Z,14.60
2017-05-10T19:46:46.600Z,14.80
2017-05-10T19:49:14.698Z,14.70
2017-05-10T19:51:41.965Z,14.50
2017-05-10T19:54:09.181Z,14.30
2017-05-10T19:56:37.147Z,14.20
2017-05-10T19:59:05.536Z,14.10
2017-05-10T20:01:33.530Z,14.10
2017-05-10T20:04:00.729Z,14.10
2017-05-10T20:06:27.939Z,14.00
2017-05-10T20:08:55.175Z,13.90
2017-05-10T20:11:22.631Z,13.90
2017-05-10T20:13:49.850Z,13.80
2017-05-10T20:16:17.786Z,13.90
2017-05-10T20:18:45.001Z,13.90
2017-05-10T20:21:12.212Z,13.70
2017-05-10T20:23:39.438Z,13.60
2017-05-10T20:26:06.656Z,13.60
2017-05-10T20:28:33.892Z,13.60
2017-05-10T20:31:01.161Z,13.60
2017-05-10T20:33:28.670Z,13.60
2017-05-10T20:35:55.901Z,13.50
2017-05-10T20:38:23.101Z,13.60
2017-05-10T20:40:51.029Z,13.60
2017-05-10T20:43:18.237Z,13.50
2017-05-10T20:45:45.876Z,13.50
2017-05-10T20:48:13.248Z,13.40
2017-05-10T20:50:40.483Z,13.30
2017-05-10T20:53:08.520Z,13.30
2017-05-10T20:55:35.764Z,13.10
2017-05-10T20:58:02.970Z,13.20
2017-05-10T21:00:30.348Z,13.20
2017-05-10T21:02:57.757Z,13.10
2017-05-10T21:05:24.956Z,12.90
2017-05-10T21:07:52.467Z,12.90
2017-05-10T21:10:19.911Z,12.80
2017-05-10T21:12:47.348Z,12.80
2017-05-10T21:15:14.836Z,12.80
2017-05-10T21:17:42.915Z,12.70
2017-05-10T21:20:10.555Z,12.80
2017-05-10T21:22:37.794Z,12.80
2017-05-10T21:25:05.013Z,12.60
2017-05-10T21:27:32.980Z,12.60
2017-05-10T21:30:00.222Z,12.60
2017-05-10T21:32:27.576Z,12.50
2017-05-10T21:34:55.108Z,12.50
2017-05-10T21:37:23.226Z,12.30
2017-05-10T21:39:51.419Z,12.30
2017-05-10T21:42:18.810Z,12.40
2017-05-10T21:44:46.064Z,12.40
2017-05-10T21:47:13.266Z,12.30
2017-05-10T21:49:40.716Z,12.30
2017-05-10T21:52:08.548Z,12.10
2017-05-10T21:54:36.537Z,12.00
2017-05-10T21:57:03.725Z,12.00
2017-05-10T21:59:30.943Z,11.90
2017-05-10T22:01:58.161Z,11.70
2017-05-10T22:04:26.095Z,11.60
2017-05-10T22:06:53.900Z,11.60
2017-05-10T22:09:21.128Z,11.50
2017-05-10T22:11:48.366Z,11.50
2017-05-10T22:14:16.393Z,11.40
2017-05-10T22:16:44.369Z,11.40
2017-05-10T22:19:12.325Z,11.20
2017-05-10T22:21:40.284Z,11.10
2017-05-10T22:24:07.481Z,11.20
2017-05-10T22:26:34.713Z,11.10
2017-05-10T22:29:02.053Z,11.10
2017-05-10T22:31:29.300Z,10.90
2017-05-10T22:33:56.564Z,10.90
2017-05-10T22:36:23.798Z,10.90
2017-05-10T22:38:51.040Z,10.90
2017-05-10T22:41:18.266Z,10.90
2017-05-10T22:43:45.472Z,10.80
2017-05-10T22:46:12.690Z,10.80
2017-05-10T22:48:39.917Z,10.80
2017-05-10T22:51:07.172Z,10.80
2017-05-10T22:53:34.385Z,10.70
2017-05-10T22:56:01.621Z,10.60
2017-05-10T22:58:28.881Z,10.70
2017-05-10T23:00:56.158Z,10.50
2017-05-10T23:03:23.433Z,10.60
2017-05-10T23:05:51.409Z,10.50
2017-05-10T23:08:18.726Z,10.50
2017-05-10T23:10:45.962Z,10.60
2017-05-10T23:13:13.189Z,10.50
2017-05-10T23:15:40.399Z,10.40
2017-05-10T23:18:07.597Z,10.30
2017-05-10T23:20:35.507Z,10.20
2017-05-10T23:23:02.702Z,10.30
2017-05-10T23:25:29.890Z,10.40
2017-05-10T23:27:57.072Z,10.40
2017-05-10T23:30:24.273Z,10.30
2017-05-10T23:32:51.520Z,10.10
2017-05-10T23:35:18.855Z,10.00
2017-05-10T23:37:46.042Z,10.00
2017-05-10T23:40:13.472Z,10.00
2017-05-10T23:42:41.645Z,10.00
2017-05-10T23:45:08.808Z,9.90
2017-05-10T23:47:36.206Z,10.10
2017-05-10T23:50:03.517Z,10.10
2017-05-10T23:52:30.939Z,10.10
2017-05-10T23:54:58.259Z,10.00
2017-05-10T23:57:25.726Z,9.90
2017-05-10T23:59:53.934Z,10.00
